Kirsten H — WY7979 — position and weather

sailwx.info

Track history (hours):
 
Tides and Currents Weather Stations Pressure Air Temp Water Temp Dewpoint Dewpoint Depression Visibility Wind Speed Wind Dir Waves Ship Positions

Kirsten H

Owner: BOYER TOWING, KETCHIKAN, AK. More information available from US FCC via Universal Licensing System and Coast Guard Vessel Documentation Center.

Last reported at 2017-Sep-21 04:18 UTC. Time now 2017-Sep-21 08:46 UTC.
Position N 54°48' W 130°59'.

Length 22 m; draft 3.7 m.

Type: Tug. MMSI: 366623050.

Date/timePositionNaut miles runAvg speedWind from/ knotsBaromVisibWave heightAir tempDewpointWater temp
2017-Sep-21 04:18N 54°48' W 130°59'4 7.1
2017-Sep-21 03:47N 54°45' W 130°55'3 7.1
2017-Sep-21 03:23N 54°43' W 130°52'3 7.6
2017-Sep-21 03:00N 54°41' W 130°48'4 7.4
2017-Sep-21 02:30N 54°37' W 130°45'4 7.5
2017-Sep-21 02:00N 54°34' W 130°43'4 7.5
2017-Sep-21 01:30N 54°30' W 130°41'4 7.2
2017-Sep-21 01:00N 54°27' W 130°40'3 7.0
2017-Sep-21 00:30N 54°23' W 130°38'3 6.8
2017-Sep-21 00:00N 54°20' W 130°36'4 7.1
2017-Sep-20 23:30N 54°17' W 130°34'4 7.4
2017-Sep-20 23:00N 54°14' W 130°30'4 7.1
2017-Sep-20 22:30N 54°11' W 130°27'3 7.0
2017-Sep-20 22:00N 54°08' W 130°24'4 7.1
2017-Sep-20 21:30N 54°06' W 130°19'4 7.3
2017-Sep-20 21:00N 54°03' W 130°15'4 7.8
2017-Sep-20 20:30N 53°59' W 130°13'4 7.4
2017-Sep-20 20:00N 53°56' W 130°11'3 7.0
2017-Sep-20 19:30N 53°54' W 130°06'4 7.0
2017-Sep-20 19:00N 53°51' W 130°02'4 7.0
2017-Sep-20 18:30N 53°49' W 129°58'4 7.1
2017-Sep-20 18:00N 53°46' W 129°54'92 6.5
2017-Sep-20 03:49N 52°30' W 128°27'2 7.1
2017-Sep-20 03:30N 52°27' W 128°28'4 7.5
2017-Sep-20 03:00N 52°24' W 128°30'15 6.3
2017-Sep-20 00:37N 52°14' W 128°12'1 7.3
2017-Sep-20 00:30N 52°14' W 128°11'4 6.6
2017-Sep-19 23:57N 52°12' W 128°06'3 7.2
2017-Sep-19 23:30N 52°09' W 128°08'4 7.2
2017-Sep-19 23:00N 52°05' W 128°06'5 7.9
2017-Sep-19 22:21N 52°04' W 127°58'2 6.6
2017-Sep-19 22:00N 52°03' W 127°55'4 7.0
2017-Sep-19 21:29N 51°59' W 127°56'3 6.7
2017-Sep-19 21:00N 51°56' W 127°56'4 7.3
2017-Sep-19 20:30N 51°52' W 127°57'4 7.5
2017-Sep-19 20:00N 51°49' W 127°56'4 7.2
2017-Sep-19 19:30N 51°45' W 127°56'3 6.3
2017-Sep-19 19:00N 51°42' W 127°55'4 7.4
2017-Sep-19 18:30N 51°38' W 127°54'4 7.2
2017-Sep-19 18:00N 51°35' W 127°53'4 7.5
2017-Sep-19 17:30N 51°31' W 127°52'4 7.3
2017-Sep-19 17:00N 51°27' W 127°52'4 7.1
2017-Sep-19 16:29N 51°24' W 127°53'4 7.0
2017-Sep-19 15:59N 51°20' W 127°53'4 6.9
2017-Sep-19 15:24N 51°16' W 127°53'3 7.1
2017-Sep-19 15:00N 51°13' W 127°52'4 7.3
2017-Sep-19 14:30N 51°10' W 127°50'25 8.2
2017-Sep-19 11:30N 50°53' W 127°22'4 8.5
2017-Sep-19 11:00N 50°50' W 127°16'4 8.3
2017-Sep-19 10:30N 50°48' W 127°12'4 7.9
2017-Sep-19 10:00N 50°45' W 127°07'4 8.0
2017-Sep-19 09:30N 50°43' W 127°01'61 8.1
2017-Sep-19 02:01N 50°21' W 125°32'011.5
2017-Sep-19 01:59N 50°21' W 125°31'4 9.1
2017-Sep-19 01:30N 50°19' W 125°25'5 9.2
2017-Sep-19 01:00N 50°15' W 125°23'4 8.4
2017-Sep-19 00:30N 50°11' W 125°22'4 7.4
2017-Sep-19 00:00N 50°07' W 125°20'4 7.1
2017-Sep-18 23:30N 50°05' W 125°16'3 5.8
2017-Sep-18 23:00N 50°02' W 125°13'2 4.5
2017-Sep-18 22:30N 50°00' W 125°12'3 5.9
2017-Sep-18 22:00N 49°58' W 125°10'3 5.9
2017-Sep-18 21:30N 49°56' W 125°07'4 8.1
2017-Sep-18 21:00N 49°53' W 125°02'4 8.2
2017-Sep-18 20:29N 49°50' W 124°57'4 7.8
2017-Sep-18 20:00N 49°48' W 124°52'4 7.5
2017-Sep-18 19:30N 49°46' W 124°47'4 7.6
2017-Sep-18 19:00N 49°44' W 124°42'4 7.6
2017-Sep-18 18:30N 49°42' W 124°38'4 8.1
2017-Sep-18 18:00N 49°39' W 124°33'4 8.0
2017-Sep-18 17:30N 49°37' W 124°28'4 7.6
2017-Sep-18 17:00N 49°34' W 124°23'4 7.8
2017-Sep-18 16:30N 49°33' W 124°18'4 7.3
2017-Sep-18 16:00N 49°31' W 124°13'3 6.6
2017-Sep-18 15:30N 49°29' W 124°09'4 7.3
2017-Sep-18 15:00N 49°27' W 124°04'4 7.9
2017-Sep-18 14:30N 49°25' W 123°59'4 7.3
2017-Sep-18 14:00N 49°22' W 123°55'4 7.3
2017-Sep-18 13:30N 49°20' W 123°51'4 7.4
2017-Sep-18 13:00N 49°18' W 123°46'4 7.7
2017-Sep-18 12:30N 49°15' W 123°42'4 7.9
2017-Sep-18 11:59N 49°13' W 123°37'4 8.0
2017-Sep-18 11:30N 49°10' W 123°32'4 7.9
2017-Sep-18 11:00N 49°08' W 123°27'4 7.9
2017-Sep-18 10:30N 49°05' W 123°23'4 8.0
2017-Sep-18 10:00N 49°03' W 123°18'4 8.7
2017-Sep-18 09:30N 48°60' W 123°13'4 8.5
2017-Sep-18 09:00N 48°57' W 123°08'4 7.5
2017-Sep-18 08:30N 48°54' W 123°04'4 7.1
2017-Sep-18 08:00N 48°52' W 122°60'4 7.7
2017-Sep-18 07:30N 48°50' W 122°55'5 7.6
2017-Sep-18 06:54N 48°47' W 122°50'3 7.5
2017-Sep-18 06:28N 48°45' W 122°46'4 7.1
2017-Sep-18 05:54N 48°41' W 122°44'6 6.3
2017-Sep-18 05:00N 48°36' W 122°45'36 6.4
2017-Sep-17 23:17N 47°60' W 122°36'2 7.2
2017-Sep-17 23:00N 47°58' W 122°35'4 8.0
2017-Sep-17 22:30N 47°56' W 122°30'4 7.5
2017-Sep-17 22:00N 47°52' W 122°28'4 8.0
2017-Sep-17 21:30N 47°49' W 122°26'4 7.6
2017-Sep-17 21:00N 47°45' W 122°27'3 6.8
2017-Sep-17 20:30N 47°43' W 122°31'1 1.3
2017-Sep-17 20:00N 47°43' W 122°32'2 4.9
2017-Sep-17 19:30N 47°41' W 122°29'5 9.3
2017-Sep-17 19:00N 47°38' W 122°24'4 8.5
2017-Sep-17 18:30N 47°34' W 122°21'2 4.1
2017-Sep-17 18:00N 47°32' W 122°20'0 0.0
2017-Sep-16 20:42N 47°32' W 122°20'0 0.4
2017-Sep-16 20:30N 47°32' W 122°20'0 0.7
2017-Sep-16 20:00N 47°32' W 122°19'0 0.1
2017-Sep-16 19:30N 47°32' W 122°19'0 0.0
2017-Sep-16 19:00N 47°32' W 122°19'0 0.1
2017-Sep-16 18:30N 47°32' W 122°19'0 0.5
2017-Sep-16 18:00N 47°32' W 122°20'3 6.0
2017-Sep-16 17:30N 47°35' W 122°22'5 9.2
2017-Sep-16 17:00N 47°38' W 122°27'3 5.6
2017-Sep-16 16:30N 47°40' W 122°30'0 0.1
2017-Sep-16 16:00N 47°40' W 122°30'0 0.0
2017-Sep-16 15:30N 47°40' W 122°30'0 0.0
2017-Sep-16 15:00N 47°40' W 122°30'0 0.1
2017-Sep-16 14:30N 47°40' W 122°30'0 1.0
2017-Sep-16 14:00N 47°40' W 122°29'2 4.5
2017-Sep-16 13:30N 47°38' W 122°29'2 3.6
2017-Sep-16 13:00N 47°36' W 122°28'2 3.8
2017-Sep-16 12:30N 47°34' W 122°29'2 4.2
2017-Sep-16 12:00N 47°34' W 122°32'2 3.7
2017-Sep-16 11:30N 47°35' W 122°34'2 3.8
2017-Sep-16 11:00N 47°34' W 122°36'2 3.8
2017-Sep-16 10:30N 47°33' W 122°39'1 2.2
2017-Sep-16 10:00N 47°32' W 122°40'0 0.5
2017-Sep-16 09:30N 47°32' W 122°40'0 0.0
2017-Sep-16 09:00N 47°32' W 122°40'0 0.0
2017-Sep-16 08:30N 47°32' W 122°40'0 0.0
2017-Sep-16 08:00N 47°32' W 122°40'0 0.0
2017-Sep-16 07:30N 47°32' W 122°40'0 0.0
2017-Sep-16 07:00N 47°32' W 122°40'0 0.0
2017-Sep-16 06:30N 47°32' W 122°40'0 0.0
2017-Sep-16 06:00N 47°32' W 122°40'0 0.0
2017-Sep-16 05:30N 47°32' W 122°40'0 0.0
2017-Sep-16 05:00N 47°32' W 122°40'0 0.0
2017-Sep-16 04:30N 47°32' W 122°40'0 0.0
2017-Sep-16 04:00N 47°32' W 122°40'0 0.0
2017-Sep-16 03:30N 47°32' W 122°40'0 0.0
2017-Sep-16 03:00N 47°32' W 122°40'0 0.0
2017-Sep-16 02:30N 47°32' W 122°40'0 0.0
2017-Sep-16 02:00N 47°32' W 122°40'0 0.0
2017-Sep-16 01:30N 47°32' W 122°40'0 0.0
2017-Sep-16 01:00N 47°32' W 122°40'0 0.0
2017-Sep-16 00:30N 47°32' W 122°40'0 0.0
2017-Sep-16 00:00N 47°32' W 122°40'0 0.0
2017-Sep-15 23:30N 47°32' W 122°40'0 0.0
2017-Sep-15 23:00N 47°32' W 122°40'0 0.0
2017-Sep-15 22:30N 47°32' W 122°40'4 8.1
2017-Sep-15 22:00N 47°35' W 122°35'4 7.3
2017-Sep-15 21:30N 47°34' W 122°30'4 9.0
2017-Sep-15 21:00N 47°36' W 122°24'1 2.6
2017-Sep-15 20:31N 47°35' W 122°22'2 3.1
2017-Sep-15 20:01N 47°34' W 122°21'2 3.5
2017-Sep-15 19:30N 47°32' W 122°20'0 0.3
2017-Sep-15 19:00N 47°32' W 122°20'0 0.1
2017-Sep-15 18:30N 47°32' W 122°20'0 0.0
2017-Sep-15 02:31N 47°32' W 122°20'0 0.4
2017-Sep-15 02:30N 47°32' W 122°20'3 5.1
2017-Sep-15 02:00N 47°35' W 122°22'4 8.7
2017-Sep-15 01:30N 47°37' W 122°26'5 9.4
2017-Sep-15 01:00N 47°42' W 122°29'2 4.4
2017-Sep-15 00:30N 47°43' W 122°32'0 0.1
2017-Sep-15 00:00N 47°43' W 122°32'0 0.8
2017-Sep-14 23:30N 47°43' W 122°31'0 0.4
2017-Sep-14 23:01N 47°43' W 122°32'2 3.9
2017-Sep-14 22:30N 47°42' W 122°29'4 7.2
2017-Sep-14 22:00N 47°38' W 122°29'4 7.2
2017-Sep-14 21:30N 47°35' W 122°28'3 6.7
2017-Sep-14 21:00N 47°31' W 122°29'4 7.2
2017-Sep-14 20:30N 47°28' W 122°31'4 7.5
2017-Sep-14 20:00N 47°24' W 122°32'3 6.6
2017-Sep-14 19:30N 47°21' W 122°32'3 5.4
2017-Sep-14 19:00N 47°18' W 122°33'2 3.7
2017-Sep-14 18:30N 47°16' W 122°33'2 3.5
2017-Sep-14 18:00N 47°15' W 122°34'3 5.3
2017-Sep-14 17:30N 47°13' W 122°35'4 7.0
2017-Sep-14 17:00N 47°10' W 122°39'2 3.1
2017-Sep-14 16:27N 47°08' W 122°39'0 0.1
2017-Sep-14 16:00N 47°08' W 122°39'0 0.0
2017-Sep-14 15:30N 47°08' W 122°39'0 0.0
2017-Sep-14 14:55N 47°08' W 122°39'0 0.0
2017-Sep-14 14:30N 47°08' W 122°39'0 0.0
2017-Sep-14 13:33N 47°08' W 122°39'0 0.0
2017-Sep-14 13:30N 47°08' W 122°39'0 0.0
2017-Sep-14 12:51N 47°08' W 122°39'0 0.1
2017-Sep-14 12:25N 47°08' W 122°39'0 0.7
2017-Sep-14 11:47N 47°08' W 122°39'0 1.5
2017-Sep-14 11:30N 47°08' W 122°40'1 1.4
2017-Sep-14 11:00N 47°09' W 122°40'1 1.8
2017-Sep-14 10:30N 47°10' W 122°39'1 1.6
2017-Sep-14 10:00N 47°11' W 122°39'1 1.8
2017-Sep-14 09:30N 47°11' W 122°38'0 0.6
2017-Sep-14 09:01N 47°11' W 122°37'0 0.4
2017-Sep-14 08:30N 47°11' W 122°37'1 1.3
2017-Sep-14 08:00N 47°12' W 122°36'2 3.4
2017-Sep-14 07:30N 47°13' W 122°35'2 4.6
2017-Sep-14 07:00N 47°15' W 122°34'3 5.7
2017-Sep-14 06:29N 47°18' W 122°33'3 6.9
2017-Sep-14 06:00N 47°21' W 122°32'4 7.2
2017-Sep-14 05:30N 47°25' W 122°32'4 7.2
2017-Sep-14 05:00N 47°28' W 122°31'4 7.1
2017-Sep-14 04:30N 47°32' W 122°28'4 7.5
2017-Sep-14 04:00N 47°35' W 122°26'2 4.9
2017-Sep-14 03:31N 47°36' W 122°22'2 5.0
2017-Sep-14 03:00N 47°33' W 122°21'1 2.2
2017-Sep-14 02:30N 47°32' W 122°20'0 0.4
2017-Sep-14 02:00N 47°32' W 122°20'0 0.0
2017-Sep-12 21:46N 47°32' W 122°20'0 0.4
2017-Sep-12 21:30N 47°32' W 122°20'0 0.2
2017-Sep-12 21:01N 47°32' W 122°20'0 0.1
2017-Sep-12 20:31N 47°32' W 122°20'0 0.0
2017-Sep-12 20:00N 47°32' W 122°20'1 2.7
2017-Sep-12 19:30N 47°33' W 122°21'2 3.6
2017-Sep-12 19:00N 47°35' W 122°22'1 2.5
2017-Sep-12 18:30N 47°36' W 122°23'3 6.0
2017-Sep-12 18:00N 47°38' W 122°27'3 6.1
2017-Sep-12 17:30N 47°40' W 122°29'3 5.8
2017-Sep-12 17:01N 47°43' W 122°31'1 1.6
2017-Sep-12 16:31N 47°43' W 122°32'0 0.1
2017-Sep-12 16:00N 47°43' W 122°32'3 6.6
2017-Sep-12 15:30N 47°41' W 122°28'510.1
2017-Sep-12 15:00N 47°37' W 122°23'4 7.9
2017-Sep-12 14:30N 47°33' W 122°21'  
Track history (hours):
 
Tides and Currents Weather Stations Pressure Air Temp Water Temp Dewpoint Dewpoint Depression Visibility Wind Speed Wind Dir Waves Ship Positions

Kirsten H

Owner: BOYER TOWING, KETCHIKAN, AK. More information available from US FCC via Universal Licensing System and Coast Guard Vessel Documentation Center.

Last reported at 2017-Sep-21 04:18 UTC. Time now 2017-Sep-21 08:46 UTC.
Position N 54°48' W 130°59'.

Length 22 m; draft 3.7 m.

Type: Tug. MMSI: 366623050.

Date/timePositionNaut miles runAvg speedWind from/ knotsBaromVisibWave heightAir tempDewpointWater temp
2017-Sep-21 04:18N 54°48' W 130°59'4 7.1
2017-Sep-21 03:47N 54°45' W 130°55'3 7.1
2017-Sep-21 03:23N 54°43' W 130°52'3 7.6
2017-Sep-21 03:00N 54°41' W 130°48'4 7.4
2017-Sep-21 02:30N 54°37' W 130°45'4 7.5
2017-Sep-21 02:00N 54°34' W 130°43'4 7.5
2017-Sep-21 01:30N 54°30' W 130°41'4 7.2
2017-Sep-21 01:00N 54°27' W 130°40'3 7.0
2017-Sep-21 00:30N 54°23' W 130°38'3 6.8
2017-Sep-21 00:00N 54°20' W 130°36'4 7.1
2017-Sep-20 23:30N 54°17' W 130°34'4 7.4
2017-Sep-20 23:00N 54°14' W 130°30'4 7.1
2017-Sep-20 22:30N 54°11' W 130°27'3 7.0
2017-Sep-20 22:00N 54°08' W 130°24'4 7.1
2017-Sep-20 21:30N 54°06' W 130°19'4 7.3
2017-Sep-20 21:00N 54°03' W 130°15'4 7.8
2017-Sep-20 20:30N 53°59' W 130°13'4 7.4
2017-Sep-20 20:00N 53°56' W 130°11'3 7.0
2017-Sep-20 19:30N 53°54' W 130°06'4 7.0
2017-Sep-20 19:00N 53°51' W 130°02'4 7.0
2017-Sep-20 18:30N 53°49' W 129°58'4 7.1
2017-Sep-20 18:00N 53°46' W 129°54'92 6.5
2017-Sep-20 03:49N 52°30' W 128°27'2 7.1
2017-Sep-20 03:30N 52°27' W 128°28'4 7.5
2017-Sep-20 03:00N 52°24' W 128°30'15 6.3
2017-Sep-20 00:37N 52°14' W 128°12'1 7.3
2017-Sep-20 00:30N 52°14' W 128°11'4 6.6
2017-Sep-19 23:57N 52°12' W 128°06'3 7.2
2017-Sep-19 23:30N 52°09' W 128°08'4 7.2
2017-Sep-19 23:00N 52°05' W 128°06'5 7.9
2017-Sep-19 22:21N 52°04' W 127°58'2 6.6
2017-Sep-19 22:00N 52°03' W 127°55'4 7.0
2017-Sep-19 21:29N 51°59' W 127°56'3 6.7
2017-Sep-19 21:00N 51°56' W 127°56'4 7.3
2017-Sep-19 20:30N 51°52' W 127°57'4 7.5
2017-Sep-19 20:00N 51°49' W 127°56'4 7.2
2017-Sep-19 19:30N 51°45' W 127°56'3 6.3
2017-Sep-19 19:00N 51°42' W 127°55'4 7.4
2017-Sep-19 18:30N 51°38' W 127°54'4 7.2
2017-Sep-19 18:00N 51°35' W 127°53'4 7.5
2017-Sep-19 17:30N 51°31' W 127°52'4 7.3
2017-Sep-19 17:00N 51°27' W 127°52'4 7.1
2017-Sep-19 16:29N 51°24' W 127°53'4 7.0
2017-Sep-19 15:59N 51°20' W 127°53'4 6.9
2017-Sep-19 15:24N 51°16' W 127°53'3 7.1
2017-Sep-19 15:00N 51°13' W 127°52'4 7.3
2017-Sep-19 14:30N 51°10' W 127°50'25 8.2
2017-Sep-19 11:30N 50°53' W 127°22'4 8.5
2017-Sep-19 11:00N 50°50' W 127°16'4 8.3
2017-Sep-19 10:30N 50°48' W 127°12'4 7.9
2017-Sep-19 10:00N 50°45' W 127°07'4 8.0
2017-Sep-19 09:30N 50°43' W 127°01'61 8.1
2017-Sep-19 02:01N 50°21' W 125°32'011.5
2017-Sep-19 01:59N 50°21' W 125°31'4 9.1
2017-Sep-19 01:30N 50°19' W 125°25'5 9.2
2017-Sep-19 01:00N 50°15' W 125°23'4 8.4
2017-Sep-19 00:30N 50°11' W 125°22'4 7.4
2017-Sep-19 00:00N 50°07' W 125°20'4 7.1
2017-Sep-18 23:30N 50°05' W 125°16'3 5.8
2017-Sep-18 23:00N 50°02' W 125°13'2 4.5
2017-Sep-18 22:30N 50°00' W 125°12'3 5.9
2017-Sep-18 22:00N 49°58' W 125°10'3 5.9
2017-Sep-18 21:30N 49°56' W 125°07'4 8.1
2017-Sep-18 21:00N 49°53' W 125°02'4 8.2
2017-Sep-18 20:29N 49°50' W 124°57'4 7.8
2017-Sep-18 20:00N 49°48' W 124°52'4 7.5
2017-Sep-18 19:30N 49°46' W 124°47'4 7.6
2017-Sep-18 19:00N 49°44' W 124°42'4 7.6
2017-Sep-18 18:30N 49°42' W 124°38'4 8.1
2017-Sep-18 18:00N 49°39' W 124°33'4 8.0
2017-Sep-18 17:30N 49°37' W 124°28'4 7.6
2017-Sep-18 17:00N 49°34' W 124°23'4 7.8
2017-Sep-18 16:30N 49°33' W 124°18'4 7.3
2017-Sep-18 16:00N 49°31' W 124°13'3 6.6
2017-Sep-18 15:30N 49°29' W 124°09'4 7.3
2017-Sep-18 15:00N 49°27' W 124°04'4 7.9
2017-Sep-18 14:30N 49°25' W 123°59'4 7.3
2017-Sep-18 14:00N 49°22' W 123°55'4 7.3
2017-Sep-18 13:30N 49°20' W 123°51'4 7.4
2017-Sep-18 13:00N 49°18' W 123°46'4 7.7
2017-Sep-18 12:30N 49°15' W 123°42'4 7.9
2017-Sep-18 11:59N 49°13' W 123°37'4 8.0
2017-Sep-18 11:30N 49°10' W 123°32'4 7.9
2017-Sep-18 11:00N 49°08' W 123°27'4 7.9
2017-Sep-18 10:30N 49°05' W 123°23'4 8.0
2017-Sep-18 10:00N 49°03' W 123°18'4 8.7
2017-Sep-18 09:30N 48°60' W 123°13'4 8.5
2017-Sep-18 09:00N 48°57' W 123°08'4 7.5
2017-Sep-18 08:30N 48°54' W 123°04'4 7.1
2017-Sep-18 08:00N 48°52' W 122°60'4 7.7
2017-Sep-18 07:30N 48°50' W 122°55'5 7.6
2017-Sep-18 06:54N 48°47' W 122°50'3 7.5
2017-Sep-18 06:28N 48°45' W 122°46'4 7.1
2017-Sep-18 05:54N 48°41' W 122°44'6 6.3
2017-Sep-18 05:00N 48°36' W 122°45'36 6.4
2017-Sep-17 23:17N 47°60' W 122°36'2 7.2
2017-Sep-17 23:00N 47°58' W 122°35'4 8.0
2017-Sep-17 22:30N 47°56' W 122°30'4 7.5
2017-Sep-17 22:00N 47°52' W 122°28'4 8.0
2017-Sep-17 21:30N 47°49' W 122°26'4 7.6
2017-Sep-17 21:00N 47°45' W 122°27'3 6.8
2017-Sep-17 20:30N 47°43' W 122°31'1 1.3
2017-Sep-17 20:00N 47°43' W 122°32'2 4.9
2017-Sep-17 19:30N 47°41' W 122°29'5 9.3
2017-Sep-17 19:00N 47°38' W 122°24'4 8.5
2017-Sep-17 18:30N 47°34' W 122°21'2 4.1
2017-Sep-17 18:00N 47°32' W 122°20'0 0.0
2017-Sep-16 20:42N 47°32' W 122°20'0 0.4
2017-Sep-16 20:30N 47°32' W 122°20'0 0.7
2017-Sep-16 20:00N 47°32' W 122°19'0 0.1
2017-Sep-16 19:30N 47°32' W 122°19'0 0.0
2017-Sep-16 19:00N 47°32' W 122°19'0 0.1
2017-Sep-16 18:30N 47°32' W 122°19'0 0.5
2017-Sep-16 18:00N 47°32' W 122°20'3 6.0
2017-Sep-16 17:30N 47°35' W 122°22'5 9.2
2017-Sep-16 17:00N 47°38' W 122°27'3 5.6
2017-Sep-16 16:30N 47°40' W 122°30'0 0.1
2017-Sep-16 16:00N 47°40' W 122°30'0 0.0
2017-Sep-16 15:30N 47°40' W 122°30'0 0.0
2017-Sep-16 15:00N 47°40' W 122°30'0 0.1
2017-Sep-16 14:30N 47°40' W 122°30'0 1.0
2017-Sep-16 14:00N 47°40' W 122°29'2 4.5
2017-Sep-16 13:30N 47°38' W 122°29'2 3.6
2017-Sep-16 13:00N 47°36' W 122°28'2 3.8
2017-Sep-16 12:30N 47°34' W 122°29'2 4.2
2017-Sep-16 12:00N 47°34' W 122°32'2 3.7
2017-Sep-16 11:30N 47°35' W 122°34'2 3.8
2017-Sep-16 11:00N 47°34' W 122°36'2 3.8
2017-Sep-16 10:30N 47°33' W 122°39'1 2.2
2017-Sep-16 10:00N 47°32' W 122°40'0 0.5
2017-Sep-16 09:30N 47°32' W 122°40'0 0.0
2017-Sep-16 09:00N 47°32' W 122°40'0 0.0
2017-Sep-16 08:30N 47°32' W 122°40'0 0.0
2017-Sep-16 08:00N 47°32' W 122°40'0 0.0
2017-Sep-16 07:30N 47°32' W 122°40'0 0.0
2017-Sep-16 07:00N 47°32' W 122°40'0 0.0
2017-Sep-16 06:30N 47°32' W 122°40'0 0.0
2017-Sep-16 06:00N 47°32' W 122°40'0 0.0
2017-Sep-16 05:30N 47°32' W 122°40'0 0.0
2017-Sep-16 05:00N 47°32' W 122°40'0 0.0
2017-Sep-16 04:30N 47°32' W 122°40'0 0.0
2017-Sep-16 04:00N 47°32' W 122°40'0 0.0
2017-Sep-16 03:30N 47°32' W 122°40'0 0.0
2017-Sep-16 03:00N 47°32' W 122°40'0 0.0
2017-Sep-16 02:30N 47°32' W 122°40'0 0.0
2017-Sep-16 02:00N 47°32' W 122°40'0 0.0
2017-Sep-16 01:30N 47°32' W 122°40'0 0.0
2017-Sep-16 01:00N 47°32' W 122°40'0 0.0
2017-Sep-16 00:30N 47°32' W 122°40'0 0.0
2017-Sep-16 00:00N 47°32' W 122°40'0 0.0
2017-Sep-15 23:30N 47°32' W 122°40'0 0.0
2017-Sep-15 23:00N 47°32' W 122°40'0 0.0
2017-Sep-15 22:30N 47°32' W 122°40'4 8.1
2017-Sep-15 22:00N 47°35' W 122°35'4 7.3
2017-Sep-15 21:30N 47°34' W 122°30'4 9.0
2017-Sep-15 21:00N 47°36' W 122°24'1 2.6
2017-Sep-15 20:31N 47°35' W 122°22'2 3.1
2017-Sep-15 20:01N 47°34' W 122°21'2 3.5
2017-Sep-15 19:30N 47°32' W 122°20'0 0.3
2017-Sep-15 19:00N 47°32' W 122°20'0 0.1
2017-Sep-15 18:30N 47°32' W 122°20'0 0.0
2017-Sep-15 02:31N 47°32' W 122°20'0 0.4
2017-Sep-15 02:30N 47°32' W 122°20'3 5.1
2017-Sep-15 02:00N 47°35' W 122°22'4 8.7
2017-Sep-15 01:30N 47°37' W 122°26'5 9.4
2017-Sep-15 01:00N 47°42' W 122°29'2 4.4
2017-Sep-15 00:30N 47°43' W 122°32'0 0.1
2017-Sep-15 00:00N 47°43' W 122°32'0 0.8
2017-Sep-14 23:30N 47°43' W 122°31'0 0.4
2017-Sep-14 23:01N 47°43' W 122°32'2 3.9
2017-Sep-14 22:30N 47°42' W 122°29'4 7.2
2017-Sep-14 22:00N 47°38' W 122°29'4 7.2
2017-Sep-14 21:30N 47°35' W 122°28'3 6.7
2017-Sep-14 21:00N 47°31' W 122°29'4 7.2
2017-Sep-14 20:30N 47°28' W 122°31'4 7.5
2017-Sep-14 20:00N 47°24' W 122°32'3 6.6
2017-Sep-14 19:30N 47°21' W 122°32'3 5.4
2017-Sep-14 19:00N 47°18' W 122°33'2 3.7
2017-Sep-14 18:30N 47°16' W 122°33'2 3.5
2017-Sep-14 18:00N 47°15' W 122°34'3 5.3
2017-Sep-14 17:30N 47°13' W 122°35'4 7.0
2017-Sep-14 17:00N 47°10' W 122°39'2 3.1
2017-Sep-14 16:27N 47°08' W 122°39'0 0.1
2017-Sep-14 16:00N 47°08' W 122°39'0 0.0
2017-Sep-14 15:30N 47°08' W 122°39'0 0.0
2017-Sep-14 14:55N 47°08' W 122°39'0 0.0
2017-Sep-14 14:30N 47°08' W 122°39'0 0.0
2017-Sep-14 13:33N 47°08' W 122°39'0 0.0
2017-Sep-14 13:30N 47°08' W 122°39'0 0.0
2017-Sep-14 12:51N 47°08' W 122°39'0 0.1
2017-Sep-14 12:25N 47°08' W 122°39'0 0.7
2017-Sep-14 11:47N 47°08' W 122°39'0 1.5
2017-Sep-14 11:30N 47°08' W 122°40'1 1.4
2017-Sep-14 11:00N 47°09' W 122°40'1 1.8
2017-Sep-14 10:30N 47°10' W 122°39'1 1.6
2017-Sep-14 10:00N 47°11' W 122°39'1 1.8
2017-Sep-14 09:30N 47°11' W 122°38'0 0.6
2017-Sep-14 09:01N 47°11' W 122°37'0 0.4
2017-Sep-14 08:30N 47°11' W 122°37'1 1.3
2017-Sep-14 08:00N 47°12' W 122°36'2 3.4
2017-Sep-14 07:30N 47°13' W 122°35'2 4.6
2017-Sep-14 07:00N 47°15' W 122°34'3 5.7
2017-Sep-14 06:29N 47°18' W 122°33'3 6.9
2017-Sep-14 06:00N 47°21' W 122°32'4 7.2
2017-Sep-14 05:30N 47°25' W 122°32'4 7.2
2017-Sep-14 05:00N 47°28' W 122°31'4 7.1
2017-Sep-14 04:30N 47°32' W 122°28'4 7.5
2017-Sep-14 04:00N 47°35' W 122°26'2 4.9
2017-Sep-14 03:31N 47°36' W 122°22'2 5.0
2017-Sep-14 03:00N 47°33' W 122°21'1 2.2
2017-Sep-14 02:30N 47°32' W 122°20'0 0.4
2017-Sep-14 02:00N 47°32' W 122°20'0 0.0
2017-Sep-12 21:46N 47°32' W 122°20'0 0.4
2017-Sep-12 21:30N 47°32' W 122°20'0 0.2
2017-Sep-12 21:01N 47°32' W 122°20'0 0.1
2017-Sep-12 20:31N 47°32' W 122°20'0 0.0
2017-Sep-12 20:00N 47°32' W 122°20'1 2.7
2017-Sep-12 19:30N 47°33' W 122°21'2 3.6
2017-Sep-12 19:00N 47°35' W 122°22'1 2.5
2017-Sep-12 18:30N 47°36' W 122°23'3 6.0
2017-Sep-12 18:00N 47°38' W 122°27'3 6.1
2017-Sep-12 17:30N 47°40' W 122°29'3 5.8
2017-Sep-12 17:01N 47°43' W 122°31'1 1.6
2017-Sep-12 16:31N 47°43' W 122°32'0 0.1
2017-Sep-12 16:00N 47°43' W 122°32'3 6.6
2017-Sep-12 15:30N 47°41' W 122°28'510.1
2017-Sep-12 15:00N 47°37' W 122°23'4 7.9
2017-Sep-12 14:30N 47°33' W 122°21'  

Dump ship's entire track history